createdAt,value
2018-09-12T00:00:24.325Z,99.99
2018-09-12T00:01:24.526Z,99.99
2018-09-12T00:02:24.671Z,99.99
2018-09-12T00:03:24.853Z,99.99
2018-09-12T00:04:25.041Z,99.99
2018-09-12T00:05:25.255Z,99.99
2018-09-12T00:06:25.406Z,99.99
2018-09-12T00:07:25.590Z,99.99
2018-09-12T00:08:25.789Z,99.99
2018-09-12T00:09:26.011Z,99.99
2018-09-12T00:10:26.227Z,99.99
2018-09-12T00:11:26.425Z,99.99
2018-09-12T00:12:26.614Z,99.99
2018-09-12T00:13:26.829Z,99.99
2018-09-12T00:14:26.976Z,99.99
2018-09-12T00:15:27.190Z,99.99
2018-09-12T00:16:27.334Z,99.99
2018-09-12T00:17:27.605Z,99.99
2018-09-12T00:18:27.700Z,99.99
2018-09-12T00:19:27.877Z,99.99
2018-09-12T00:20:28.096Z,99.99
2018-09-12T00:21:28.237Z,99.99
2018-09-12T00:22:28.429Z,99.99
2018-09-12T00:23:28.613Z,99.99
2018-09-12T00:24:28.783Z,99.99
2018-09-12T00:25:28.971Z,99.99
2018-09-12T00:26:29.150Z,99.99
2018-09-12T00:27:29.321Z,99.99
2018-09-12T00:28:29.506Z,99.99
2018-09-12T00:29:29.690Z,99.99
2018-09-12T00:30:29.887Z,99.99
2018-09-12T00:31:30.063Z,99.99
2018-09-12T00:32:30.249Z,99.99
2018-09-12T00:33:30.448Z,99.99
2018-09-12T00:34:30.604Z,99.99
2018-09-12T00:35:30.790Z,99.99
2018-09-12T00:36:30.980Z,99.99
2018-09-12T00:37:31.148Z,99.99
2018-09-12T00:38:31.348Z,99.99
2018-09-12T00:39:31.508Z,99.99
2018-09-12T00:40:31.694Z,99.99
2018-09-12T00:41:31.872Z,99.99
2018-09-12T00:42:32.036Z,99.99
2018-09-12T00:43:32.290Z,99.99
2018-09-12T00:44:32.455Z,99.99
2018-09-12T00:45:32.627Z,99.99
2018-09-12T00:46:32.810Z,99.99
2018-09-12T00:47:32.992Z,99.99
2018-09-12T00:48:33.176Z,99.99
2018-09-12T00:49:33.353Z,99.99
2018-09-12T00:50:33.527Z,99.99
2018-09-12T00:51:33.705Z,99.99
2018-09-12T00:52:33.906Z,99.99
2018-09-12T00:53:34.126Z,99.99
2018-09-12T00:54:34.265Z,99.99
2018-09-12T00:55:34.441Z,99.99
2018-09-12T00:56:34.633Z,99.99
2018-09-12T00:57:35.604Z,99.99
2018-09-12T00:58:35.041Z,99.99
2018-09-12T00:59:35.229Z,99.99
2018-09-12T01:00:35.422Z,99.99
2018-09-12T01:01:35.633Z,99.99
2018-09-12T01:02:35.829Z,99.99
2018-09-12T01:03:36.028Z,99.99
2018-09-12T01:04:36.288Z,99.99
2018-09-12T01:05:36.436Z,99.99
2018-09-12T01:06:36.613Z,99.99
2018-09-12T01:07:36.818Z,99.99
2018-09-12T01:08:37.533Z,99.99
2018-09-12T01:09:37.123Z,99.99
2018-09-12T01:10:37.286Z,99.99
2018-09-12T01:11:37.475Z,99.99
2018-09-12T01:12:37.658Z,99.99
2018-09-12T01:13:37.839Z,99.99
2018-09-12T01:14:38.022Z,99.99
2018-09-12T01:15:38.199Z,99.99
2018-09-12T01:16:38.378Z,99.99
2018-09-12T01:17:38.556Z,99.99
2018-09-12T01:18:38.732Z,99.99
2018-09-12T01:19:38.918Z,99.99
2018-09-12T01:20:39.105Z,99.99
2018-09-12T01:21:39.305Z,99.99
2018-09-12T01:22:39.451Z,99.99
2018-09-12T01:23:39.645Z,99.99
2018-09-12T01:24:39.804Z,99.99
2018-09-12T01:25:40.020Z,99.99
2018-09-12T01:26:40.167Z,99.99
2018-09-12T01:27:40.359Z,99.99
2018-09-12T01:28:40.540Z,99.99
2018-09-12T01:29:40.724Z,99.99
2018-09-12T01:30:40.907Z,99.99
2018-09-12T01:31:41.088Z,99.99
2018-09-12T01:32:41.288Z,99.99
2018-09-12T01:33:41.505Z,99.99
2018-09-12T01:34:41.647Z,99.99
2018-09-12T01:35:41.824Z,99.99
2018-09-12T01:36:42.049Z,99.99
2018-09-12T01:37:42.191Z,99.99
2018-09-12T01:38:42.392Z,99.99
2018-09-12T01:39:42.548Z,99.99
2018-09-12T01:40:42.735Z,99.99
2018-09-12T01:41:42.935Z,99.99
2018-09-12T01:42:43.116Z,99.99
2018-09-12T01:43:43.274Z,99.99
2018-09-12T01:44:43.447Z,99.99
2018-09-12T01:45:43.629Z,99.99
2018-09-12T01:46:43.842Z,99.99
2018-09-12T01:47:44.022Z,99.99
2018-09-12T01:48:44.209Z,99.99
2018-09-12T01:49:44.395Z,99.99
2018-09-12T01:50:44.581Z,99.99
2018-09-12T01:51:44.767Z,99.99
2018-09-12T01:52:44.943Z,99.99
2018-09-12T01:53:45.113Z,99.99
2018-09-12T01:54:45.302Z,99.99
2018-09-12T01:55:45.493Z,99.99
2018-09-12T01:56:45.656Z,99.99
2018-09-12T01:57:45.851Z,99.99
2018-09-12T01:58:45.999Z,99.99
2018-09-12T01:59:46.201Z,99.99
2018-09-12T02:00:46.358Z,99.99
2018-09-12T02:01:46.553Z,99.99
2018-09-12T02:04:31.456Z,99.99
2018-09-12T02:05:29.623Z,99.99
2018-09-12T02:06:29.813Z,99.99
2018-09-12T02:07:29.984Z,99.99
2018-09-12T02:08:30.178Z,99.99
2018-09-12T02:09:30.342Z,99.99
2018-09-12T02:10:30.572Z,99.99
2018-09-12T02:11:30.708Z,99.99
2018-09-12T02:12:30.894Z,99.99
2018-09-12T02:13:31.095Z,99.99
2018-09-12T02:14:31.242Z,99.99
2018-09-12T02:15:31.442Z,99.99
2018-09-12T02:16:31.603Z,99.99
2018-09-12T02:17:31.809Z,99.99
2018-09-12T02:18:31.962Z,99.99
2018-09-12T02:19:32.165Z,99.99
2018-09-12T02:20:32.344Z,99.99
2018-09-12T02:21:32.581Z,99.99
2018-09-12T02:22:32.758Z,99.99
2018-09-12T02:23:32.885Z,99.99
2018-09-12T02:24:33.082Z,99.99
2018-09-12T02:25:33.254Z,99.99
2018-09-12T02:26:33.444Z,99.99
2018-09-12T02:27:33.632Z,99.99
2018-09-12T02:28:33.831Z,99.99
2018-09-12T02:29:33.983Z,99.99
2018-09-12T02:30:34.163Z,99.99
2018-09-12T02:31:34.344Z,99.99
2018-09-12T02:32:34.518Z,99.99
2018-09-12T02:33:34.723Z,99.99
2018-09-12T02:34:34.932Z,99.99
2018-09-12T02:35:35.099Z,99.99
2018-09-12T02:36:35.309Z,99.99
2018-09-12T02:37:35.469Z,99.99
2018-09-12T02:38:35.672Z,99.99
2018-09-12T02:39:35.864Z,99.99
2018-09-12T02:40:36.073Z,99.99
2018-09-12T02:41:36.259Z,99.99
2018-09-12T02:42:36.437Z,99.99
2018-09-12T02:43:36.654Z,99.99
2018-09-12T02:44:36.798Z,99.99
2018-09-12T02:45:37.002Z,99.99
2018-09-12T02:46:37.203Z,99.99
2018-09-12T02:47:37.350Z,99.99
2018-09-12T02:48:37.578Z,99.99
2018-09-12T02:49:37.715Z,99.99
2018-09-12T02:50:37.954Z,99.99
2018-09-12T02:51:38.092Z,99.99
2018-09-12T02:52:38.279Z,99.99
2018-09-12T02:53:38.470Z,99.99
2018-09-12T02:54:38.631Z,99.99
2018-09-12T02:55:38.842Z,99.99
2018-09-12T02:56:39.034Z,99.99
2018-09-12T02:57:39.251Z,99.99
2018-09-12T02:58:39.407Z,99.99
2018-09-12T02:59:39.604Z,99.99
2018-09-12T03:00:39.762Z,99.99
2018-09-12T03:01:39.945Z,99.99
2018-09-12T03:02:40.124Z,99.99
2018-09-12T03:03:40.312Z,99.99
2018-09-12T03:04:40.494Z,99.99
2018-09-12T03:05:40.690Z,99.99
2018-09-12T03:06:40.861Z,99.99
2018-09-12T03:07:41.056Z,99.99
2018-09-12T03:08:41.304Z,99.99
2018-09-12T03:09:41.562Z,99.99
2018-09-12T03:10:41.674Z,99.99
2018-09-12T03:11:41.913Z,99.99
2018-09-12T03:12:42.045Z,99.99
2018-09-12T03:13:42.220Z,99.99
2018-09-12T03:14:42.790Z,99.99
2018-09-12T03:15:42.643Z,99.99
2018-09-12T03:16:42.804Z,99.99
2018-09-12T03:17:43.007Z,99.99
2018-09-12T03:18:43.154Z,99.99
2018-09-12T03:19:43.369Z,99.99
2018-09-12T03:20:43.627Z,99.99
2018-09-12T03:21:43.734Z,99.99
2018-09-12T03:22:43.944Z,99.99
2018-09-12T03:23:44.092Z,99.99
2018-09-12T03:24:44.307Z,99.99
2018-09-12T03:25:44.492Z,99.99
2018-09-12T03:26:44.666Z,99.99
2018-09-12T03:27:44.874Z,99.99
2018-09-12T03:28:45.034Z,99.99
2018-09-12T03:29:45.207Z,99.99
2018-09-12T03:30:45.394Z,99.99
2018-09-12T03:31:45.573Z,99.99
2018-09-12T03:32:45.772Z,99.99
2018-09-12T03:33:45.959Z,99.99
2018-09-12T03:34:46.155Z,99.99
2018-09-12T03:35:46.337Z,99.99
2018-09-12T03:36:46.483Z,99.99
2018-09-12T03:37:46.649Z,99.99
2018-09-12T03:38:46.859Z,99.99
2018-09-12T03:39:47.033Z,99.99
2018-09-12T03:40:47.212Z,99.99
2018-09-12T03:41:47.416Z,99.99
2018-09-12T03:42:47.593Z,99.99
2018-09-12T03:43:47.835Z,99.99
2018-09-12T03:44:47.996Z,99.99
2018-09-12T03:45:48.186Z,99.99
2018-09-12T03:46:48.382Z,99.99
2018-09-12T03:47:48.548Z,99.99
2018-09-12T03:48:48.743Z,99.99
2018-09-12T03:49:48.913Z,99.99
2018-09-12T03:50:49.100Z,99.99
2018-09-12T03:51:49.282Z,99.99
2018-09-12T03:52:49.464Z,99.99
2018-09-12T03:53:49.669Z,99.99
2018-09-12T03:54:49.853Z,99.99
2018-09-12T03:55:50.049Z,99.99
2018-09-12T03:56:50.215Z,99.99
2018-09-12T03:57:50.394Z,99.99
2018-09-12T03:58:50.581Z,99.99
2018-09-12T03:59:50.766Z,99.99
2018-09-12T04:00:50.952Z,99.99
2018-09-12T04:01:51.121Z,99.99
2018-09-12T04:02:51.318Z,99.99
2018-09-12T04:03:51.484Z,99.99
2018-09-12T04:04:51.657Z,99.99
2018-09-12T04:05:51.863Z,99.99
2018-09-12T04:06:52.045Z,99.99
2018-09-12T04:07:52.251Z,99.99
2018-09-12T04:08:52.426Z,99.99
2018-09-12T04:09:52.569Z,99.99
2018-09-12T04:10:52.744Z,99.99
2018-09-12T04:11:52.919Z,99.99
2018-09-12T04:12:53.173Z,99.99
2018-09-12T04:13:53.325Z,99.99
2018-09-12T04:14:53.508Z,99.99
2018-09-12T04:15:53.697Z,99.99
2018-09-12T04:16:54.015Z,99.99
2018-09-12T04:17:54.068Z,99.99
2018-09-12T04:18:54.270Z,99.99
2018-09-12T04:19:54.477Z,99.99
2018-09-12T04:20:54.658Z,99.99
2018-09-12T04:21:54.837Z,99.99
2018-09-12T04:22:55.023Z,99.99
2018-09-12T04:23:55.245Z,99.99
2018-09-12T04:24:55.371Z,99.99
2018-09-12T04:25:55.570Z,99.99
2018-09-12T04:26:55.729Z,99.99
2018-09-12T04:27:55.900Z,99.99
2018-09-12T04:28:56.075Z,99.99
2018-09-12T04:29:56.246Z,99.99
2018-09-12T04:30:56.474Z,99.99
2018-09-12T04:31:56.608Z,99.99
2018-09-12T04:32:56.795Z,99.99
2018-09-12T04:33:57.056Z,99.99
2018-09-12T04:34:57.238Z,99.99
2018-09-12T04:35:57.419Z,99.99
2018-09-12T04:36:57.654Z,99.99
2018-09-12T04:37:57.767Z,99.99
2018-09-12T04:38:57.946Z,99.99
2018-09-12T04:39:58.145Z,99.99
2018-09-12T04:40:58.354Z,99.99
2018-09-12T04:41:58.554Z,99.99
2018-09-12T04:42:58.690Z,99.99
2018-09-12T04:43:58.852Z,99.99
2018-09-12T04:44:59.031Z,99.99
2018-09-12T04:45:59.234Z,99.99
2018-09-12T04:46:59.408Z,99.99
2018-09-12T04:47:59.588Z,99.99
2018-09-12T04:48:59.763Z,99.99
2018-09-12T04:50:00.011Z,99.99
2018-09-12T04:51:00.155Z,99.99
2018-09-12T04:52:00.385Z,99.99
2018-09-12T04:53:00.584Z,99.99
2018-09-12T04:54:00.765Z,99.99
2018-09-12T04:55:00.964Z,99.99
2018-09-12T04:56:01.112Z,99.99
2018-09-12T04:57:01.298Z,99.99
2018-09-12T04:58:01.469Z,99.99
2018-09-12T04:59:01.649Z,99.99
2018-09-12T05:00:01.877Z,99.99
2018-09-12T05:01:02.004Z,99.99
2018-09-12T05:02:02.187Z,99.99
2018-09-12T05:03:02.378Z,99.99
2018-09-12T05:04:02.567Z,99.99
2018-09-12T05:05:02.754Z,99.99
2018-09-12T05:06:02.934Z,99.99
2018-09-12T05:07:03.114Z,99.99
2018-09-12T05:08:03.358Z,99.99
2018-09-12T05:09:03.468Z,99.99
2018-09-12T05:10:03.673Z,99.99
2018-09-12T05:11:03.889Z,99.99
2018-09-12T05:12:04.051Z,99.99
2018-09-12T05:13:04.233Z,99.99
2018-09-12T05:14:04.436Z,99.99
2018-09-12T05:15:04.735Z,99.99
2018-09-12T05:16:04.989Z,99.99
2018-09-12T05:17:04.973Z,99.99
2018-09-12T05:18:05.150Z,99.99
2018-09-12T05:19:05.321Z,99.99
2018-09-12T05:20:05.510Z,99.99
2018-09-12T05:21:05.710Z,99.99
2018-09-12T05:22:05.921Z,99.99
2018-09-12T05:23:06.141Z,99.99
2018-09-12T05:24:06.330Z,99.99
2018-09-12T05:25:06.507Z,99.99
2018-09-12T05:26:06.689Z,99.99
2018-09-12T05:27:06.872Z,99.99
2018-09-12T05:28:07.052Z,99.99
2018-09-12T05:29:07.243Z,99.99
2018-09-12T05:30:07.442Z,99.99
2018-09-12T05:31:07.611Z,99.99
2018-09-12T05:32:07.798Z,99.99
2018-09-12T05:33:07.997Z,99.99
2018-09-12T05:34:08.208Z,99.99
2018-09-12T05:35:08.397Z,99.99
2018-09-12T05:36:08.586Z,99.99
2018-09-12T05:37:08.796Z,99.99
2018-09-12T05:38:08.960Z,99.99
2018-09-12T05:39:09.172Z,99.99
2018-09-12T05:40:09.398Z,99.99
2018-09-12T05:41:09.535Z,99.99
2018-09-12T05:42:09.758Z,99.99
2018-09-12T05:43:09.979Z,99.99
2018-09-12T05:44:10.087Z,99.99
2018-09-12T05:45:10.262Z,99.99
2018-09-12T05:46:10.450Z,99.99
2018-09-12T05:47:10.726Z,99.99
2018-09-12T05:48:10.892Z,99.99
2018-09-12T05:49:11.091Z,99.99
2018-09-12T05:50:11.297Z,99.99
2018-09-12T05:51:11.436Z,99.99
2018-09-12T05:52:11.637Z,99.99
2018-09-12T05:53:11.859Z,99.99
2018-09-12T05:54:12.051Z,99.99
2018-09-12T05:55:12.234Z,99.01
2018-09-12T05:56:12.429Z,99.06
2018-09-12T05:57:12.615Z,98.63
2018-09-12T05:58:12.817Z,98.77
2018-09-12T05:59:13.068Z,98.05
2018-09-12T06:00:13.188Z,97.19
2018-09-12T06:01:13.368Z,96.51
2018-09-12T06:02:13.554Z,96.12
2018-09-12T06:03:13.730Z,95.07
2018-09-12T06:04:13.935Z,97.47
2018-09-12T06:05:14.169Z,96.85
2018-09-12T06:06:14.360Z,94.59
2018-09-12T06:07:14.808Z,93.81
2018-09-12T06:08:14.698Z,94.34
2018-09-12T06:09:14.903Z,94.44
2018-09-12T06:10:15.085Z,94.44
2018-09-12T06:11:15.275Z,95.26
2018-09-12T06:12:15.461Z,93.29
2018-09-12T06:13:15.662Z,93.29
2018-09-12T06:14:15.958Z,93.48
2018-09-12T06:15:16.068Z,94.64
2018-09-12T06:16:16.235Z,94.82
2018-09-12T06:17:16.382Z,95.21
2018-09-12T06:18:16.573Z,94.44
2018-09-12T06:19:16.820Z,93.86
2018-09-12T06:20:16.942Z,94.54
2018-09-12T06:21:17.164Z,90.53
2018-09-12T06:22:17.315Z,89.13
2018-09-12T06:23:17.509Z,89.27
2018-09-12T06:24:17.702Z,88.89
2018-09-12T06:25:17.890Z,90.05
2018-09-12T06:26:18.080Z,88.50
2018-09-12T06:27:18.270Z,89.56
2018-09-12T06:28:18.472Z,87.34
2018-09-12T06:29:18.653Z,87.34
2018-09-12T06:30:18.843Z,88.40
2018-09-12T06:31:19.041Z,87.78
2018-09-12T06:32:19.245Z,87.88
2018-09-12T06:33:19.426Z,87.93
2018-09-12T06:34:19.618Z,87.88
2018-09-12T06:35:19.803Z,88.08
2018-09-12T06:36:20.015Z,88.56
2018-09-12T06:37:20.179Z,87.40
2018-09-12T06:38:20.422Z,88.27
2018-09-12T06:39:20.589Z,87.35
2018-09-12T06:40:20.748Z,86.58
2018-09-12T06:41:20.937Z,85.75
2018-09-12T06:42:21.154Z,85.56
2018-09-12T06:43:21.312Z,86.00
2018-09-12T06:44:21.516Z,85.61
2018-09-12T06:45:21.722Z,85.61
2018-09-12T06:46:21.904Z,85.66
2018-09-12T06:47:22.122Z,84.59
2018-09-12T06:48:22.308Z,85.80
2018-09-12T06:49:22.502Z,84.74
2018-09-12T06:50:22.685Z,85.36
2018-09-12T06:51:22.882Z,84.78
2018-09-12T06:52:23.060Z,81.92
2018-09-12T06:53:23.247Z,81.92
2018-09-12T06:54:23.443Z,80.72
2018-09-12T06:55:23.631Z,80.82
2018-09-12T06:56:23.823Z,81.84
2018-09-12T06:57:24.007Z,83.09
2018-09-12T06:58:24.206Z,83.09
2018-09-12T06:59:24.425Z,81.84
2018-09-12T07:00:24.589Z,85.06
2018-09-12T07:01:24.775Z,82.40
2018-09-12T07:02:24.973Z,81.20
2018-09-12T07:03:25.166Z,80.62
2018-09-12T07:04:25.331Z,81.53
2018-09-12T07:05:25.522Z,83.56
2018-09-12T07:06:25.731Z,82.35
2018-09-12T07:07:25.909Z,83.12
2018-09-12T07:08:26.095Z,83.61
2018-09-12T07:09:26.317Z,80.80
2018-09-12T07:10:26.474Z,81.57
2018-09-12T07:11:26.679Z,82.15
2018-09-12T07:12:26.874Z,82.87
2018-09-12T07:13:27.065Z,81.52
2018-09-12T07:14:27.260Z,81.37
2018-09-12T07:15:27.452Z,79.29
2018-09-12T07:16:27.660Z,79.29
2018-09-12T07:17:27.865Z,78.23
2018-09-12T07:18:28.079Z,78.81
2018-09-12T07:19:28.289Z,79.39
2018-09-12T07:20:28.495Z,78.23
2018-09-12T07:21:28.728Z,77.55
2018-09-12T07:22:28.920Z,78.27
2018-09-12T07:23:29.076Z,79.43
2018-09-12T07:24:29.389Z,79.27
2018-09-12T07:25:29.466Z,76.86
2018-09-12T07:26:29.654Z,76.18
2018-09-12T07:27:29.862Z,75.07
2018-09-12T07:28:30.047Z,75.37
2018-09-12T07:29:30.226Z,75.62
2018-09-12T07:30:30.432Z,76.16
2018-09-12T07:31:30.603Z,77.57
2018-09-12T07:32:30.792Z,78.73
2018-09-12T07:33:30.982Z,79.41
2018-09-12T07:34:31.162Z,79.47
2018-09-12T07:35:31.391Z,79.47
2018-09-12T07:36:31.557Z,79.56
2018-09-12T07:37:31.720Z,80.05
2018-09-12T07:38:31.921Z,79.70
2018-09-12T07:39:32.116Z,79.12
2018-09-12T07:40:32.312Z,79.50
2018-09-12T07:41:32.512Z,79.02
2018-09-12T07:42:32.696Z,78.92
2018-09-12T07:43:32.925Z,78.15
2018-09-12T07:44:33.081Z,78.87
2018-09-12T07:45:34.271Z,78.09
2018-09-12T07:46:33.505Z,78.25
2018-09-12T07:47:33.724Z,79.02
2018-09-12T07:48:33.941Z,78.19
2018-09-12T07:49:34.119Z,79.54
2018-09-12T07:50:34.287Z,77.65
2018-09-12T07:51:34.526Z,76.74
2018-09-12T07:52:34.672Z,77.42
2018-09-12T07:53:34.861Z,78.19
2018-09-12T07:54:35.048Z,78.23
2018-09-12T07:55:35.231Z,76.93
2018-09-12T07:56:35.405Z,77.71
2018-09-12T07:57:35.601Z,77.71
2018-09-12T07:58:35.805Z,77.80
2018-09-12T07:59:35.970Z,77.80
2018-09-12T08:00:36.173Z,78.38
2018-09-12T08:01:36.359Z,78.48
2018-09-12T08:02:36.560Z,77.80
2018-09-12T08:03:36.741Z,78.19
2018-09-12T08:04:36.936Z,78.44
2018-09-12T08:05:37.129Z,79.74
2018-09-12T08:06:37.327Z,79.02
2018-09-12T08:07:37.520Z,79.06
2018-09-12T08:08:37.704Z,78.64
2018-09-12T08:09:37.890Z,78.83
2018-09-12T08:10:38.086Z,79.99
2018-09-12T08:11:38.294Z,80.61
2018-09-12T08:12:38.487Z,79.35
2018-09-12T08:13:38.649Z,79.74
2018-09-12T08:14:38.839Z,79.00
2018-09-12T08:15:39.036Z,77.59
2018-09-12T08:16:39.228Z,78.89
2018-09-12T08:17:39.399Z,76.76
2018-09-12T08:18:39.589Z,74.47
2018-09-12T08:19:39.778Z,74.47
2018-09-12T08:20:39.983Z,74.96
2018-09-12T08:21:40.220Z,76.06
2018-09-12T08:22:40.429Z,75.48
2018-09-12T08:23:40.652Z,77.16
2018-09-12T08:24:40.853Z,73.28
2018-09-12T08:25:41.049Z,74.64
2018-09-12T08:26:41.245Z,74.87
2018-09-12T08:27:41.433Z,73.13
2018-09-12T08:28:41.629Z,71.32
2018-09-12T08:29:41.822Z,69.48
2018-09-12T08:30:42.005Z,72.00
2018-09-12T08:31:42.200Z,73.26
2018-09-12T08:32:42.395Z,72.39
2018-09-12T08:33:42.581Z,72.77
2018-09-12T08:34:42.769Z,72.64
2018-09-12T08:35:42.981Z,73.22
2018-09-12T08:36:43.158Z,70.90
2018-09-12T08:37:43.375Z,73.44
2018-09-12T08:38:43.557Z,74.51
2018-09-12T08:39:43.752Z,74.64
2018-09-12T08:40:43.951Z,74.26
2018-09-12T08:41:44.130Z,75.81
2018-09-12T08:42:44.329Z,72.74
2018-09-12T08:43:44.512Z,70.61
2018-09-12T08:44:44.705Z,68.54
2018-09-12T08:45:44.894Z,68.86
2018-09-12T08:46:45.078Z,69.64
2018-09-12T08:47:45.304Z,69.50
2018-09-12T08:48:45.455Z,69.31
2018-09-12T08:49:45.640Z,69.44
2018-09-12T08:50:45.827Z,68.21
2018-09-12T08:51:46.046Z,69.22
2018-09-12T08:52:46.285Z,70.00
2018-09-12T08:53:46.420Z,67.47
2018-09-12T08:54:46.603Z,68.35
2018-09-12T08:55:46.811Z,69.41
2018-09-12T08:56:47.085Z,67.08
2018-09-12T08:57:47.196Z,65.92
2018-09-12T08:58:47.383Z,65.75
2018-09-12T08:59:47.565Z,65.24
2018-09-12T09:00:47.793Z,65.92
2018-09-12T09:01:47.979Z,67.66
2018-09-12T09:02:48.131Z,65.43
2018-09-12T09:03:48.319Z,65.66
2018-09-12T09:04:48.505Z,65.08
2018-09-12T09:05:48.689Z,65.37
2018-09-12T09:06:48.891Z,64.91
2018-09-12T09:07:49.071Z,65.20
2018-09-12T09:08:49.279Z,63.55
2018-09-12T09:09:49.439Z,63.52
2018-09-12T09:10:49.631Z,64.33
2018-09-12T09:11:49.825Z,65.79
2018-09-12T09:12:50.018Z,63.10
2018-09-12T09:13:50.207Z,62.81
2018-09-12T09:14:50.400Z,63.84
2018-09-12T09:15:50.594Z,63.23
2018-09-12T09:16:50.786Z,63.13
2018-09-12T09:17:50.994Z,63.81
2018-09-12T09:18:51.157Z,64.69
2018-09-12T09:19:51.364Z,64.23
2018-09-12T09:20:51.539Z,65.01
2018-09-12T09:21:51.733Z,63.55
2018-09-12T09:22:51.930Z,63.17
2018-09-12T09:23:52.112Z,62.45
2018-09-12T09:24:52.315Z,63.62
2018-09-12T09:25:52.499Z,63.13
2018-09-12T09:26:52.709Z,64.01
2018-09-12T09:27:52.878Z,63.71
2018-09-12T09:28:53.128Z,64.01
2018-09-12T09:29:53.261Z,63.91
2018-09-12T09:30:53.455Z,67.11
2018-09-12T09:31:53.670Z,65.59
2018-09-12T09:32:53.839Z,64.53
2018-09-12T09:33:54.032Z,63.94
2018-09-12T09:34:54.295Z,63.10
2018-09-12T09:35:54.426Z,62.71
2018-09-12T09:36:54.606Z,62.41
2018-09-12T09:37:54.801Z,62.41
2018-09-12T09:38:55.001Z,62.77
2018-09-12T09:39:55.197Z,62.77
2018-09-12T09:40:55.378Z,62.29
2018-09-12T09:41:55.560Z,63.17
2018-09-12T09:42:55.823Z,62.97
2018-09-12T09:43:55.962Z,62.45
2018-09-12T09:44:56.129Z,63.45
2018-09-12T09:45:56.325Z,63.36
2018-09-12T09:46:56.502Z,63.00
2018-09-12T09:47:56.748Z,63.87
2018-09-12T09:48:56.899Z,62.54
2018-09-12T09:49:57.091Z,62.26
2018-09-12T09:50:57.265Z,62.51
2018-09-12T09:51:57.469Z,62.93
2018-09-12T09:52:57.638Z,63.00
2018-09-12T09:53:57.842Z,62.81
2018-09-12T09:54:58.092Z,62.61
2018-09-12T09:55:58.231Z,62.16
2018-09-12T09:56:58.430Z,61.54
2018-09-12T09:57:58.639Z,61.87
2018-09-12T09:58:58.807Z,62.54
2018-09-12T09:59:59.007Z,61.38
2018-09-12T10:01:00.225Z,61.08
2018-09-12T10:01:59.392Z,60.89
2018-09-12T10:02:59.584Z,61.28
2018-09-12T10:03:59.779Z,61.08
2018-09-12T10:04:59.979Z,59.85
2018-09-12T10:06:00.265Z,60.92
2018-09-12T10:07:00.365Z,59.85
2018-09-12T10:08:00.551Z,59.85
2018-09-12T10:09:00.808Z,58.97
2018-09-12T10:10:00.947Z,59.63
2018-09-12T10:11:01.137Z,60.11
2018-09-12T10:12:01.399Z,59.72
2018-09-12T10:13:01.574Z,59.63
2018-09-12T10:14:01.756Z,59.72
2018-09-12T10:15:01.952Z,60.21
2018-09-12T10:16:02.136Z,60.14
2018-09-12T10:17:02.337Z,59.14
2018-09-12T10:18:02.564Z,59.14
2018-09-12T10:19:02.753Z,59.75
2018-09-12T10:20:02.968Z,58.75
2018-09-12T10:21:03.177Z,59.66
2018-09-12T10:22:03.352Z,58.69
2018-09-12T10:23:03.572Z,59.53
2018-09-12T10:24:03.714Z,59.63
2018-09-12T10:25:03.924Z,59.66
2018-09-12T10:26:04.118Z,59.07
2018-09-12T10:27:04.338Z,58.97
2018-09-12T10:28:04.523Z,58.95
2018-09-12T10:29:04.703Z,58.85
2018-09-12T10:30:04.897Z,58.65
2018-09-12T10:31:05.099Z,59.33
2018-09-12T10:32:06.006Z,58.75
2018-09-12T10:33:05.496Z,57.90
2018-09-12T10:34:05.742Z,58.95
2018-09-12T10:35:05.969Z,58.95
2018-09-12T10:36:06.135Z,58.75
2018-09-12T10:37:06.336Z,58.95
2018-09-12T10:38:06.520Z,58.97
2018-09-12T10:39:06.711Z,59.36
2018-09-12T10:40:06.911Z,58.81
2018-09-12T10:41:07.190Z,58.03
2018-09-12T10:42:07.286Z,58.71
2018-09-12T10:43:07.494Z,58.03
2018-09-12T10:44:07.685Z,58.13
2018-09-12T10:45:07.884Z,59.20
2018-09-12T10:46:08.063Z,58.61
2018-09-12T10:47:08.262Z,57.45
2018-09-12T10:48:08.459Z,58.13
2018-09-12T10:49:08.659Z,58.39
2018-09-12T10:50:08.866Z,58.69
2018-09-12T10:51:09.045Z,60.17
2018-09-12T10:52:09.239Z,58.91
2018-09-12T10:53:09.432Z,58.87
2018-09-12T10:54:09.651Z,59.20
2018-09-12T10:55:09.847Z,58.61
2018-09-12T10:56:10.273Z,58.06
2018-09-12T10:57:10.319Z,58.84
2018-09-12T10:58:10.475Z,57.67
2018-09-12T10:59:10.746Z,58.13
2018-09-12T11:00:10.853Z,58.03
2018-09-12T11:01:11.047Z,58.64
2018-09-12T11:02:11.238Z,57.45
2018-09-12T11:03:11.424Z,57.35
2018-09-12T11:04:11.721Z,59.10
2018-09-12T11:05:11.857Z,58.94
2018-09-12T11:06:12.044Z,58.06
2018-09-12T11:07:12.171Z,57.28
2018-09-12T11:08:12.430Z,58.77
2018-09-12T11:09:12.616Z,56.43
2018-09-12T11:10:12.779Z,56.99
2018-09-12T11:11:12.969Z,57.25
2018-09-12T11:12:13.152Z,57.06
2018-09-12T11:13:13.342Z,57.74
2018-09-12T11:14:13.535Z,57.74
2018-09-12T11:15:13.739Z,57.74
2018-09-12T11:16:13.949Z,57.81
2018-09-12T11:17:14.149Z,57.51
2018-09-12T11:18:14.371Z,57.74
2018-09-12T11:19:14.553Z,58.84
2018-09-12T11:20:14.738Z,56.96
2018-09-12T11:21:14.926Z,57.45
2018-09-12T11:22:15.100Z,57.84
2018-09-12T11:23:15.309Z,58.32
2018-09-12T11:24:15.518Z,58.61
2018-09-12T11:25:15.736Z,57.54
2018-09-12T11:26:15.859Z,56.86
2018-09-12T11:27:16.042Z,57.57
2018-09-12T11:28:16.259Z,56.86
2018-09-12T11:29:16.451Z,57.57
2018-09-12T11:30:16.630Z,56.86
2018-09-12T11:31:16.821Z,57.64
2018-09-12T11:32:17.048Z,57.45
2018-09-12T11:33:17.185Z,57.45
2018-09-12T11:34:17.390Z,58.22
2018-09-12T11:35:17.603Z,57.64
2018-09-12T11:36:17.780Z,57.25
2018-09-12T11:37:17.961Z,57.35
2018-09-12T11:38:18.213Z,57.15
2018-09-12T11:39:18.397Z,57.54
2018-09-12T11:40:18.590Z,57.84
2018-09-12T11:41:19.547Z,57.54
2018-09-12T11:42:19.024Z,57.15
2018-09-12T11:43:19.137Z,57.47
2018-09-12T11:44:19.327Z,56.70
2018-09-12T11:45:19.551Z,56.89
2018-09-12T11:46:20.116Z,56.79
2018-09-12T11:47:19.920Z,56.50
2018-09-12T11:48:20.132Z,56.40
2018-09-12T11:49:20.317Z,56.72
2018-09-12T11:50:20.916Z,56.72
2018-09-12T11:51:20.634Z,55.82
2018-09-12T11:52:20.849Z,56.40
2018-09-12T11:53:21.721Z,55.82
2018-09-12T11:54:21.199Z,56.37
2018-09-12T11:55:21.441Z,56.27
2018-09-12T11:56:21.580Z,57.18
2018-09-12T11:57:21.789Z,56.43
2018-09-12T11:58:21.953Z,55.85
2018-09-12T11:59:22.156Z,56.52
2018-09-12T12:00:22.352Z,56.72
2018-09-12T12:01:22.539Z,55.65
2018-09-12T12:02:22.747Z,55.82
2018-09-12T12:03:22.950Z,56.40
2018-09-12T12:04:23.139Z,56.40
2018-09-12T12:05:23.292Z,56.40
2018-09-12T12:06:23.440Z,56.40
2018-09-12T12:07:23.662Z,56.21
2018-09-12T12:08:23.840Z,57.57
2018-09-12T12:09:24.044Z,56.14
2018-09-12T12:10:24.230Z,56.62
2018-09-12T12:11:24.400Z,56.23
2018-09-12T12:12:24.574Z,55.85
2018-09-12T12:13:24.773Z,55.75
2018-09-12T12:14:24.958Z,55.72
2018-09-12T12:15:25.254Z,56.40
2018-09-12T12:16:25.350Z,56.47
2018-09-12T12:17:25.544Z,57.86
2018-09-12T12:18:25.720Z,56.30
2018-09-12T12:19:25.911Z,56.11
2018-09-12T12:20:26.082Z,56.40
2018-09-12T12:21:26.262Z,55.69
2018-09-12T12:22:26.473Z,56.67
2018-09-12T12:23:26.665Z,56.57
2018-09-12T12:24:26.869Z,57.64
2018-09-12T12:25:27.084Z,56.47
2018-09-12T12:26:27.260Z,56.18
2018-09-12T12:27:27.449Z,55.43
2018-09-12T12:28:27.622Z,55.79
2018-09-12T12:29:27.873Z,56.37
2018-09-12T12:30:28.076Z,56.11
2018-09-12T12:31:28.226Z,56.37
2018-09-12T12:32:28.379Z,58.15
2018-09-12T12:33:28.564Z,56.89
2018-09-12T12:34:28.849Z,55.72
2018-09-12T12:35:29.022Z,55.33
2018-09-12T12:36:29.220Z,55.72
2018-09-12T12:37:29.331Z,54.26
2018-09-12T12:38:29.557Z,53.55
2018-09-12T12:39:29.713Z,54.72
2018-09-12T12:40:29.926Z,54.62
2018-09-12T12:41:30.160Z,54.65
2018-09-12T12:42:30.312Z,55.04
2018-09-12T12:43:30.501Z,54.85
2018-09-12T12:44:30.787Z,54.16
2018-09-12T12:45:30.903Z,54.62
2018-09-12T12:46:31.078Z,54.65
2018-09-12T12:47:31.254Z,54.55
2018-09-12T12:48:31.425Z,54.65
2018-09-12T12:49:31.609Z,54.94
2018-09-12T12:50:31.799Z,54.26
2018-09-12T12:51:32.269Z,54.55
2018-09-12T12:52:32.372Z,54.46
2018-09-12T12:53:32.349Z,54.94
2018-09-12T12:54:32.530Z,54.85
2018-09-12T12:55:32.722Z,54.68
2018-09-12T12:56:32.912Z,55.36